LFQG 301030Z AUTO 01009KT 310V060 CAVOK 22/07 Q1018

ElémentsDécodage
LFQG Station météo située sur l'aérodrome de NEVERS Fourchambault
301030Z émis le 30 du mois à 10h30 UTC
AUTO Bulletin édité par un automate
01009KT vent du 010°, 09 noeuds
310V060 vent de direction variable entre 310° et 060°
CAVOK Ceiling And Visibility OK
- Visibilité de 10 Km ou plus
- Pas de nuage au-dessous de 1500m ou au-dessous de l'altitude minimale du secteur la plus élevée (si>1500m) et absence de CB
- pas de temps présent significatif
22/07 température 22°C, point de rosée 07°C
 soit une humidité relative de 38%
Q1018 la pression au niveau de la mer (QNH) est de 1018 hPa